Time;durP1;ratioP1;P1;durP2;ratioP2;P2;SDS_P1;SDS_P2;PMS_P1;PMS_P2;Temp;Humidity;BMP_temperature;BMP_pressure;BME280_temperature;BME280_humidity;BME280_pressure;Samples;Min_cycle;Max_cycle;Signal;HPM_P1;HPM_P2
2022/01/25 18:17:50;;;;;;;16.02;11.20;;;15.80;75.50;;;;;;2292652;62;30341;-77
2022/01/25 18:20:18;;;;;;;13.63;10.85;;;15.80;77.50;;;;;;2281531;62;30263;-77
2022/01/25 18:22:55;;;;;;;11.35;10.02;;;15.90;78.50;;;;;;2281503;62;30075;-76
2022/01/25 18:25:38;;;;;;;10.95;9.45;;;16.00;79.30;;;;;;2281769;62;30416;-77
2022/01/25 18:28:10;;;;;;;13.57;9.68;;;16.00;80.00;;;;;;2285172;62;30542;-77
2022/01/25 18:30:36;;;;;;;11.50;9.68;;;16.10;80.30;;;;;;2275064;62;30221;-78
2022/01/25 18:33:03;;;;;;;12.55;10.18;;;16.20;80.70;;;;;;2274172;62;30326;-77
2022/01/25 18:35:29;;;;;;;12.48;10.02;;;16.10;80.60;;;;;;2282128;62;30328;-77
2022/01/25 18:37:56;;;;;;;14.30;10.82;;;16.10;80.60;;;;;;2281325;62;30373;-77
2022/01/25 18:40:23;;;;;;;13.20;11.50;;;16.10;80.60;;;;;;2274172;62;30070;-76
2022/01/25 18:42:48;;;;;;;13.27;10.25;;;16.00;80.50;;;;;;2270579;62;30397;-76
2022/01/25 18:45:17;;;;;;;12.35;10.65;;;16.00;80.50;;;;;;2282327;62;30358;-76
2022/01/25 18:47:45;;;;;;;11.63;10.43;;;16.00;80.80;;;;;;2289544;62;30194;-77
2022/01/25 18:50:11;;;;;;;12.65;10.80;;;15.90;80.80;;;;;;2282266;62;30350;-76
2022/01/25 18:52:36;;;;;;;13.65;11.45;;;15.90;81.00;;;;;;2275322;62;30213;-76
2022/01/25 18:55:03;;;;;;;15.82;11.77;;;15.90;80.70;;;;;;2287038;62;30129;-78
2022/01/25 18:57:29;;;;;;;16.38;12.82;;;15.90;80.60;;;;;;2281692;62;30173;-76
2022/01/25 18:59:55;;;;;;;16.58;12.77;;;15.80;80.50;;;;;;2281142;62;30447;-75
2022/01/25 19:02:35;;;;;;;22.38;13.38;;;15.90;80.50;;;;;;2281190;62;30130;-75
2022/01/25 19:05:02;;;;;;;19.83;14.50;;;15.90;80.30;;;;;;2276530;62;30993;-75
2022/01/25 19:07:28;;;;;;;20.35;15.02;;;15.80;80.50;;;;;;2288011;62;32318;-76
2022/01/25 19:09:56;;;;;;;19.48;14.60;;;15.80;80.40;;;;;;2272501;62;30068;-76
2022/01/25 19:12:22;;;;;;;18.05;14.27;;;15.80;80.50;;;;;;2287298;62;31347;-77
2022/01/25 19:14:47;;;;;;;18.05;13.10;;;15.80;80.60;;;;;;2284774;62;30070;-79
2022/01/25 19:17:14;;;;;;;18.85;13.85;;;15.90;80.70;;;;;;2272491;62;30242;-78
2022/01/25 19:19:40;;;;;;;16.85;12.15;;;16.00;80.50;;;;;;2272227;62;30249;-78
2022/01/25 19:22:08;;;;;;;16.77;12.13;;;16.10;80.30;;;;;;2272870;62;30310;-78
2022/01/25 19:24:35;;;;;;;17.23;11.55;;;16.10;80.00;;;;;;2272947;62;30783;-77
2022/01/25 19:27:02;;;;;;;13.45;11.43;;;16.20;79.70;;;;;;2272524;62;30287;-76
2022/01/25 19:29:28;;;;;;;13.90;11.30;;;16.30;79.60;;;;;;2267437;62;30340;-76
2022/01/25 19:31:53;;;;;;;13.73;10.27;;;16.40;79.40;;;;;;2267572;62;30445;-77
2022/01/25 19:34:21;;;;;;;11.80;9.32;;;16.40;79.20;;;;;;2266586;62;30436;-74
2022/01/25 19:36:47;;;;;;;11.40;10.20;;;16.50;78.90;;;;;;2267659;62;30273;-75
2022/01/25 19:39:13;;;;;;;11.85;9.50;;;16.50;78.50;;;;;;2267533;62;30274;-75
2022/01/25 19:41:40;;;;;;;10.50;9.20;;;16.60;78.30;;;;;;2267243;62;30122;-75
2022/01/25 19:44:06;;;;;;;11.30;8.95;;;16.60;78.10;;;;;;2267529;62;30187;-75
2022/01/25 19:46:35;;;;;;;10.85;8.98;;;16.60;77.90;;;;;;2259689;62;30524;-76
2022/01/25 19:49:02;;;;;;;11.95;8.70;;;16.60;77.70;;;;;;2260740;62;30359;-76
2022/01/25 19:51:29;;;;;;;10.70;8.20;;;16.70;77.70;;;;;;2267671;62;30704;-76
2022/01/25 19:53:56;;;;;;;8.95;7.95;;;16.70;77.50;;;;;;2266925;62;30178;-76
2022/01/25 19:56:32;;;;;;;10.50;7.93;;;16.70;77.40;;;;;;2267064;62;30312;-76
2022/01/25 19:58:58;;;;;;;9.63;8.18;;;16.70;77.30;;;;;;2267221;62;30561;-76
2022/01/25 20:01:24;;;;;;;11.27;8.20;;;16.70;77.30;;;;;;2267294;62;30196;-76
2022/01/25 20:03:50;;;;;;;9.73;7.93;;;16.70;77.10;;;;;;2267107;62;30059;-76
2022/01/25 20:06:15;;;;;;;9.05;7.85;;;16.70;77.10;;;;;;2267523;62;30592;-76
2022/01/25 20:08:41;;;;;;;10.98;8.18;;;16.70;77.00;;;;;;2267479;62;30075;-75
2022/01/25 20:11:08;;;;;;;8.63;7.43;;;16.70;76.90;;;;;;2267360;62;30991;-74
2022/01/25 20:13:35;;;;;;;8.95;7.63;;;16.70;77.60;;;;;;2266763;62;31520;-74
2022/01/25 20:16:03;;;;;;;9.40;8.07;;;16.70;76.80;;;;;;2266806;62;30800;-74
2022/01/25 20:18:33;;;;;;;8.80;7.15;;;16.80;76.70;;;;;;2267599;62;30325;-74
2022/01/25 20:23:38;;;;;;;8.98;7.90;;;16.80;76.50;;;;;;2266520;62;30370;-73
2022/01/25 20:26:30;;;;;;;9.80;7.72;;;16.80;76.40;;;;;;2264112;62;31708;-75
2022/01/25 20:29:10;;;;;;;11.20;7.80;;;16.80;76.10;;;;;;2259364;62;30208;-75
2022/01/25 20:31:37;;;;;;;9.32;8.15;;;16.90;76.10;;;;;;2259138;62;30878;-75
2022/01/25 20:34:07;;;;;;;7.85;6.93;;;16.90;76.00;;;;;;2258920;63;30150;-76
2022/01/25 20:36:33;;;;;;;9.45;7.28;;;17.00;75.90;;;;;;2260289;62;30522;-75
2022/01/25 20:38:59;;;;;;;10.02;7.10;;;17.00;75.70;;;;;;2265234;62;30642;-75
2022/01/25 20:41:25;;;;;;;8.23;7.05;;;17.00;75.60;;;;;;2252323;63;31402;-75
2022/01/25 20:43:53;;;;;;;10.57;7.50;;;17.10;75.50;;;;;;2258953;63;30348;-75
2022/01/25 20:46:19;;;;;;;8.48;7.13;;;17.10;75.30;;;;;;2252312;63;30386;-74
2022/01/25 20:48:45;;;;;;;8.48;6.78;;;17.10;75.10;;;;;;2258783;63;30316;-74
2022/01/25 20:51:11;;;;;;;10.75;7.13;;;17.20;75.00;;;;;;2258919;63;30555;-74
2022/01/25 20:53:37;;;;;;;9.20;6.88;;;17.20;74.90;;;;;;2259129;62;30055;-74
2022/01/25 20:56:04;;;;;;;7.32;6.63;;;17.20;74.80;;;;;;2258644;63;31014;-74
2022/01/25 20:58:30;;;;;;;9.10;7.07;;;17.20;74.70;;;;;;2259081;62;30223;-74
2022/01/25 21:00:56;;;;;;;7.75;6.65;;;17.20;74.60;;;;;;2259475;63;30321;-73
2022/01/25 21:08:46;;;;;;;9.23;6.93;;;17.30;74.20;;;;;;2267147;62;30403;-73
2022/01/25 21:11:11;;;;;;;8.38;6.80;;;17.30;74.30;;;;;;2267192;62;30210;-75
2022/01/25 21:13:37;;;;;;;7.70;6.78;;;17.30;74.20;;;;;;2266814;62;30145;-74
2022/01/25 21:16:06;;;;;;;7.93;7.13;;;17.30;74.10;;;;;;2271460;62;30385;-73
2022/01/25 21:18:32;;;;;;;7.95;7.15;;;17.30;74.00;;;;;;2283326;62;30246;-74
2022/01/25 21:20:58;;;;;;;9.02;7.68;;;17.30;73.90;;;;;;2276140;62;30326;-75
2022/01/25 21:23:24;;;;;;;10.32;8.32;;;17.40;73.90;;;;;;2283352;62;30255;-73
2022/01/25 21:25:51;;;;;;;11.45;8.68;;;17.40;73.90;;;;;;2280981;62;30599;-73
2022/01/25 21:28:17;;;;;;;9.82;8.73;;;17.40;73.70;;;;;;2276176;62;30602;-73
2022/01/25 21:30:44;;;;;;;10.07;8.60;;;17.30;73.60;;;;;;2275131;62;30241;-72
2022/01/25 21:33:13;;;;;;;13.02;9.23;;;17.30;73.70;;;;;;2274946;62;30139;-71
2022/01/25 21:35:44;;;;;;;13.38;9.15;;;17.30;73.80;;;;;;2276962;62;30422;-72
2022/01/25 21:38:10;;;;;;;21.83;10.27;;;17.30;73.90;;;;;;2283327;62;30383;-75
2022/01/25 21:40:36;;;;;;;11.15;9.52;;;17.30;73.90;;;;;;2275216;62;30087;-73
2022/01/25 21:43:02;;;;;;;13.27;9.20;;;17.30;73.80;;;;;;2283500;62;30405;-73
2022/01/25 21:45:29;;;;;;;12.18;9.48;;;17.30;73.70;;;;;;2283323;62;30316;-74
2022/01/25 21:47:56;;;;;;;11.82;9.27;;;17.30;73.60;;;;;;2283301;62;30472;-73
2022/01/25 21:50:23;;;;;;;10.38;8.32;;;17.30;73.40;;;;;;2275990;62;30948;-74
2022/01/25 21:52:49;;;;;;;10.38;8.65;;;17.30;73.30;;;;;;2276152;62;31110;-75
2022/01/25 21:55:20;;;;;;;9.55;8.40;;;17.40;73.30;;;;;;2283089;62;30661;-75
2022/01/25 21:57:46;;;;;;;10.45;8.50;;;17.40;73.10;;;;;;2276189;62;30106;-75
2022/01/25 22:00:12;;;;;;;10.10;8.88;;;17.40;73.10;;;;;;2283365;62;30567;-74
2022/01/25 22:02:49;;;;;;;12.30;9.00;;;17.40;73.10;;;;;;2281118;62;31040;-75
2022/01/25 22:05:16;;;;;;;9.75;8.75;;;17.40;73.00;;;;;;2275064;62;30622;-75
2022/01/25 22:08:03;;;;;;;9.18;8.20;;;17.40;73.70;;;;;;2274258;62;30221;-75
2022/01/25 22:10:34;;;;;;;10.35;8.30;;;17.40;73.00;;;;;;2275167;62;30159;-75
2022/01/25 22:13:04;;;;;;;11.00;8.80;;;17.40;73.00;;;;;;2278252;62;30298;-75
2022/01/25 22:15:32;;;;;;;11.23;8.30;;;17.40;72.90;;;;;;2270028;62;30041;-74
2022/01/25 22:18:01;;;;;;;10.20;8.25;;;17.40;72.80;;;;;;2277910;62;30064;-74
2022/01/25 22:20:28;;;;;;;10.82;7.95;;;17.40;72.80;;;;;;2282886;62;30314;-75
2022/01/25 22:22:54;;;;;;;12.23;8.30;;;17.40;72.80;;;;;;2269250;62;30955;-75
2022/01/25 22:25:22;;;;;;;10.63;8.15;;;17.40;72.70;;;;;;2283145;62;30630;-76
2022/01/25 22:27:51;;;;;;;9.77;8.07;;;17.40;72.70;;;;;;2282997;62;30406;-74
2022/01/25 22:30:17;;;;;;;10.80;8.88;;;17.40;72.70;;;;;;2273623;62;31058;-75
2022/01/25 22:32:46;;;;;;;10.13;8.15;;;17.40;72.60;;;;;;2274517;62;30107;-75
2022/01/25 22:35:14;;;;;;;9.82;8.60;;;17.40;72.60;;;;;;2274918;62;30249;-73
2022/01/25 22:37:44;;;;;;;10.23;7.97;;;17.40;72.60;;;;;;2274657;62;30400;-72
2022/01/25 22:40:11;;;;;;;9.85;7.95;;;17.40;72.60;;;;;;2267618;62;30268;-74
2022/01/25 22:42:36;;;;;;;9.82;7.97;;;17.40;72.60;;;;;;2270449;62;30821;-75
2022/01/25 22:45:03;;;;;;;9.68;8.23;;;17.40;72.50;;;;;;2274442;62;30257;-75
2022/01/25 22:47:46;;;;;;;10.70;8.57;;;17.40;72.40;;;;;;2266645;62;30212;-75
2022/01/25 22:50:17;;;;;;;11.23;8.88;;;17.40;72.40;;;;;;2274509;62;30375;-76
2022/01/25 22:52:43;;;;;;;12.73;9.97;;;17.40;72.30;;;;;;2274764;62;30939;-78
2022/01/25 22:55:13;;;;;;;19.92;12.57;;;17.30;72.30;;;;;;2267289;62;31015;-76
2022/01/25 22:57:41;;;;;;;28.38;13.20;;;17.40;72.30;;;;;;2260891;62;30052;-75
2022/01/25 23:00:35;;;;;;;20.15;11.95;;;17.40;72.20;;;;;;2267678;62;30106;-75
2022/01/25 23:03:05;;;;;;;19.87;11.67;;;17.30;71.60;;;;;;2275118;62;30272;-73
